sensor_id;sensor_type;location;lat;lon;timestamp;P1;durP1;ratioP1;P2;durP2;ratioP2
31182;SDS011;17813;0.000;0.000;2022-08-01T00:01:55;7.27;;;6.07;;
31182;SDS011;17813;0.000;0.000;2022-08-01T00:04:22;6.97;;;6.37;;
31182;SDS011;17813;0.000;0.000;2022-08-01T00:06:49;7.03;;;6.00;;
31182;SDS011;17813;0.000;0.000;2022-08-01T00:09:16;9.40;;;5.90;;
31182;SDS011;17813;0.000;0.000;2022-08-01T00:11:43;6.70;;;6.10;;
31182;SDS011;17813;0.000;0.000;2022-08-01T00:14:10;8.50;;;6.50;;
31182;SDS011;17813;0.000;0.000;2022-08-01T00:16:37;10.47;;;7.30;;
31182;SDS011;17813;0.000;0.000;2022-08-01T00:19:07;8.87;;;6.70;;
31182;SDS011;17813;0.000;0.000;2022-08-01T00:21:33;7.87;;;6.20;;
31182;SDS011;17813;0.000;0.000;2022-08-01T00:24:00;6.80;;;6.10;;
31182;SDS011;17813;0.000;0.000;2022-08-01T00:26:27;8.40;;;6.00;;
31182;SDS011;17813;0.000;0.000;2022-08-01T00:28:54;6.80;;;5.80;;
31182;SDS011;17813;0.000;0.000;2022-08-01T00:31:21;6.33;;;5.83;;
31182;SDS011;17813;0.000;0.000;2022-08-01T00:33:48;5.83;;;5.30;;
31182;SDS011;17813;0.000;0.000;2022-08-01T00:36:14;5.80;;;5.37;;
31182;SDS011;17813;0.000;0.000;2022-08-01T00:38:42;5.90;;;5.30;;
31182;SDS011;17813;0.000;0.000;2022-08-01T00:41:09;6.90;;;5.73;;
31182;SDS011;17813;0.000;0.000;2022-08-01T00:43:35;6.20;;;5.60;;
31182;SDS011;17813;0.000;0.000;2022-08-01T00:46:03;5.60;;;5.10;;
31182;SDS011;17813;0.000;0.000;2022-08-01T00:48:29;5.97;;;5.47;;
31182;SDS011;17813;0.000;0.000;2022-08-01T00:50:56;5.80;;;5.30;;
31182;SDS011;17813;0.000;0.000;2022-08-01T00:53:24;7.90;;;5.27;;
31182;SDS011;17813;0.000;0.000;2022-08-01T00:55:51;5.67;;;5.10;;
31182;SDS011;17813;0.000;0.000;2022-08-01T00:58:18;5.67;;;5.13;;
31182;SDS011;17813;0.000;0.000;2022-08-01T01:00:46;5.20;;;4.80;;
31182;SDS011;17813;0.000;0.000;2022-08-01T01:03:13;6.33;;;5.00;;
31182;SDS011;17813;0.000;0.000;2022-08-01T01:05:45;7.07;;;5.47;;
31182;SDS011;17813;0.000;0.000;2022-08-01T01:08:42;5.90;;;5.40;;
31182;SDS011;17813;0.000;0.000;2022-08-01T01:11:25;10.80;;;5.20;;
31182;SDS011;17813;0.000;0.000;2022-08-01T01:14:04;5.90;;;5.40;;
31182;SDS011;17813;0.000;0.000;2022-08-01T01:16:36;6.70;;;6.10;;
31182;SDS011;17813;0.000;0.000;2022-08-01T01:19:07;6.33;;;5.77;;
31182;SDS011;17813;0.000;0.000;2022-08-01T01:21:44;7.90;;;5.83;;
31182;SDS011;17813;0.000;0.000;2022-08-01T01:27:09;6.10;;;5.50;;
31182;SDS011;17813;0.000;0.000;2022-08-01T01:29:57;6.50;;;5.53;;
31182;SDS011;17813;0.000;0.000;2022-08-01T01:32:37;5.97;;;5.23;;
31182;SDS011;17813;0.000;0.000;2022-08-01T01:35:23;5.60;;;5.03;;
31182;SDS011;17813;0.000;0.000;2022-08-01T01:37:54;5.53;;;5.03;;
31182;SDS011;17813;0.000;0.000;2022-08-01T01:40:50;5.77;;;5.27;;
31182;SDS011;17813;0.000;0.000;2022-08-01T01:43:19;5.97;;;5.37;;
31182;SDS011;17813;0.000;0.000;2022-08-01T01:45:48;6.33;;;5.73;;
31182;SDS011;17813;0.000;0.000;2022-08-01T01:48:17;5.87;;;5.00;;
31182;SDS011;17813;0.000;0.000;2022-08-01T01:50:46;6.00;;;5.50;;
31182;SDS011;17813;0.000;0.000;2022-08-01T01:53:15;6.50;;;5.90;;
31182;SDS011;17813;0.000;0.000;2022-08-01T01:55:48;6.30;;;5.70;;
31182;SDS011;17813;0.000;0.000;2022-08-01T01:58:19;6.20;;;5.60;;
31182;SDS011;17813;0.000;0.000;2022-08-01T02:00:48;6.87;;;6.30;;
31182;SDS011;17813;0.000;0.000;2022-08-01T02:03:17;6.83;;;6.13;;
31182;SDS011;17813;0.000;0.000;2022-08-01T02:05:46;6.93;;;6.33;;
31182;SDS011;17813;0.000;0.000;2022-08-01T02:08:15;7.47;;;6.70;;
31182;SDS011;17813;0.000;0.000;2022-08-01T02:10:44;7.73;;;7.03;;
31182;SDS011;17813;0.000;0.000;2022-08-01T02:13:32;9.07;;;7.20;;
31182;SDS011;17813;0.000;0.000;2022-08-01T02:16:03;8.37;;;7.57;;
31182;SDS011;17813;0.000;0.000;2022-08-01T02:18:31;7.13;;;6.40;;
31182;SDS011;17813;0.000;0.000;2022-08-01T02:20:59;9.27;;;7.40;;
31182;SDS011;17813;0.000;0.000;2022-08-01T02:23:31;7.50;;;6.90;;
31182;SDS011;17813;0.000;0.000;2022-08-01T02:26:01;8.13;;;7.07;;
31182;SDS011;17813;0.000;0.000;2022-08-01T02:28:35;7.83;;;6.80;;
31182;SDS011;17813;0.000;0.000;2022-08-01T02:31:23;6.87;;;6.13;;
31182;SDS011;17813;0.000;0.000;2022-08-01T02:33:57;6.30;;;5.80;;
31182;SDS011;17813;0.000;0.000;2022-08-01T02:36:32;6.47;;;5.87;;
31182;SDS011;17813;0.000;0.000;2022-08-01T02:39:06;6.50;;;5.90;;
31182;SDS011;17813;0.000;0.000;2022-08-01T02:41:36;9.80;;;6.50;;
31182;SDS011;17813;0.000;0.000;2022-08-01T02:44:09;6.20;;;5.70;;
31182;SDS011;17813;0.000;0.000;2022-08-01T02:46:49;7.33;;;5.83;;
31182;SDS011;17813;0.000;0.000;2022-08-01T02:49:29;7.13;;;6.47;;
31182;SDS011;17813;0.000;0.000;2022-08-01T02:52:00;6.30;;;5.80;;
31182;SDS011;17813;0.000;0.000;2022-08-01T02:54:30;7.30;;;6.00;;
31182;SDS011;17813;0.000;0.000;2022-08-01T02:57:00;7.00;;;6.40;;
31182;SDS011;17813;0.000;0.000;2022-08-01T02:59:28;6.70;;;6.10;;
31182;SDS011;17813;0.000;0.000;2022-08-01T03:01:57;8.83;;;6.50;;
31182;SDS011;17813;0.000;0.000;2022-08-01T03:04:30;7.20;;;6.50;;
31182;SDS011;17813;0.000;0.000;2022-08-01T03:07:00;8.97;;;6.23;;
31182;SDS011;17813;0.000;0.000;2022-08-01T03:09:29;6.90;;;6.30;;
31182;SDS011;17813;0.000;0.000;2022-08-01T03:12:00;6.13;;;5.53;;
31182;SDS011;17813;0.000;0.000;2022-08-01T03:14:29;6.20;;;5.70;;
31182;SDS011;17813;0.000;0.000;2022-08-01T03:17:00;6.37;;;5.80;;
31182;SDS011;17813;0.000;0.000;2022-08-01T03:19:29;7.40;;;5.93;;
31182;SDS011;17813;0.000;0.000;2022-08-01T03:21:57;6.33;;;5.73;;
31182;SDS011;17813;0.000;0.000;2022-08-01T03:24:25;6.30;;;5.80;;
31182;SDS011;17813;0.000;0.000;2022-08-01T03:26:52;6.70;;;6.10;;
31182;SDS011;17813;0.000;0.000;2022-08-01T03:29:22;6.80;;;6.07;;
31182;SDS011;17813;0.000;0.000;2022-08-01T03:31:51;6.40;;;5.90;;
31182;SDS011;17813;0.000;0.000;2022-08-01T03:34:19;7.17;;;6.00;;
31182;SDS011;17813;0.000;0.000;2022-08-01T03:36:49;7.30;;;5.90;;
31182;SDS011;17813;0.000;0.000;2022-08-01T03:39:44;7.53;;;5.87;;
31182;SDS011;17813;0.000;0.000;2022-08-01T03:42:18;6.60;;;6.00;;
31182;SDS011;17813;0.000;0.000;2022-08-01T03:44:58;6.57;;;6.07;;
31182;SDS011;17813;0.000;0.000;2022-08-01T03:47:35;6.30;;;5.73;;
31182;SDS011;17813;0.000;0.000;2022-08-01T03:50:03;6.43;;;5.93;;
31182;SDS011;17813;0.000;0.000;2022-08-01T03:52:31;6.30;;;5.80;;
31182;SDS011;17813;0.000;0.000;2022-08-01T03:55:02;6.53;;;5.80;;
31182;SDS011;17813;0.000;0.000;2022-08-01T03:57:32;6.40;;;5.70;;
31182;SDS011;17813;0.000;0.000;2022-08-01T04:00:00;6.40;;;5.77;;
31182;SDS011;17813;0.000;0.000;2022-08-01T04:02:31;5.93;;;5.37;;
31182;SDS011;17813;0.000;0.000;2022-08-01T04:05:00;6.63;;;5.80;;
31182;SDS011;17813;0.000;0.000;2022-08-01T04:07:31;6.30;;;5.80;;
31182;SDS011;17813;0.000;0.000;2022-08-01T04:10:03;6.50;;;5.80;;
31182;SDS011;17813;0.000;0.000;2022-08-01T04:12:31;6.47;;;5.90;;
31182;SDS011;17813;0.000;0.000;2022-08-01T04:15:00;6.07;;;5.47;;
31182;SDS011;17813;0.000;0.000;2022-08-01T04:17:26;8.47;;;5.40;;
31182;SDS011;17813;0.000;0.000;2022-08-01T04:19:53;6.37;;;5.60;;
31182;SDS011;17813;0.000;0.000;2022-08-01T04:22:20;6.70;;;5.70;;
31182;SDS011;17813;0.000;0.000;2022-08-01T04:24:47;5.70;;;5.20;;
31182;SDS011;17813;0.000;0.000;2022-08-01T04:27:19;6.27;;;5.33;;
31182;SDS011;17813;0.000;0.000;2022-08-01T04:29:56;5.70;;;5.20;;
31182;SDS011;17813;0.000;0.000;2022-08-01T04:32:26;5.50;;;5.10;;
31182;SDS011;17813;0.000;0.000;2022-08-01T04:34:57;5.93;;;5.20;;
31182;SDS011;17813;0.000;0.000;2022-08-01T04:37:27;5.43;;;4.70;;
31182;SDS011;17813;0.000;0.000;2022-08-01T04:39:56;6.27;;;4.93;;
31182;SDS011;17813;0.000;0.000;2022-08-01T04:42:25;6.40;;;5.00;;
31182;SDS011;17813;0.000;0.000;2022-08-01T04:44:53;5.33;;;4.83;;
31182;SDS011;17813;0.000;0.000;2022-08-01T04:47:20;5.73;;;4.80;;
31182;SDS011;17813;0.000;0.000;2022-08-01T04:49:51;5.13;;;4.63;;
31182;SDS011;17813;0.000;0.000;2022-08-01T04:52:22;4.97;;;4.47;;
31182;SDS011;17813;0.000;0.000;2022-08-01T04:54:57;4.60;;;4.17;;
31182;SDS011;17813;0.000;0.000;2022-08-01T04:57:25;4.47;;;4.07;;
31182;SDS011;17813;0.000;0.000;2022-08-01T05:03:23;4.03;;;3.60;;
31182;SDS011;17813;0.000;0.000;2022-08-01T05:05:51;4.43;;;3.80;;
31182;SDS011;17813;0.000;0.000;2022-08-01T05:08:18;3.97;;;3.67;;
31182;SDS011;17813;0.000;0.000;2022-08-01T05:10:45;4.07;;;3.77;;
31182;SDS011;17813;0.000;0.000;2022-08-01T05:13:13;3.70;;;3.40;;
31182;SDS011;17813;0.000;0.000;2022-08-01T05:15:42;3.77;;;3.47;;
31182;SDS011;17813;0.000;0.000;2022-08-01T05:18:09;3.70;;;3.40;;
31182;SDS011;17813;0.000;0.000;2022-08-01T05:20:37;3.70;;;3.40;;
31182;SDS011;17813;0.000;0.000;2022-08-01T05:23:04;2.90;;;2.70;;
31182;SDS011;17813;0.000;0.000;2022-08-01T05:25:32;2.87;;;2.67;;
31182;SDS011;17813;0.000;0.000;2022-08-01T05:27:59;2.30;;;2.20;;
31182;SDS011;17813;0.000;0.000;2022-08-01T05:30:26;2.43;;;2.10;;
31182;SDS011;17813;0.000;0.000;2022-08-01T05:32:53;2.63;;;2.10;;
31182;SDS011;17813;0.000;0.000;2022-08-01T05:35:20;2.77;;;2.20;;
31182;SDS011;17813;0.000;0.000;2022-08-01T05:37:47;2.20;;;2.10;;
31182;SDS011;17813;0.000;0.000;2022-08-01T05:40:14;2.43;;;1.90;;
31182;SDS011;17813;0.000;0.000;2022-08-01T05:42:40;2.77;;;2.00;;
31182;SDS011;17813;0.000;0.000;2022-08-01T05:45:07;1.93;;;1.80;;
31182;SDS011;17813;0.000;0.000;2022-08-01T05:47:35;1.90;;;1.80;;
31182;SDS011;17813;0.000;0.000;2022-08-01T05:50:02;1.90;;;1.80;;
31182;SDS011;17813;0.000;0.000;2022-08-01T05:52:29;1.70;;;1.60;;
31182;SDS011;17813;0.000;0.000;2022-08-01T05:54:57;2.03;;;1.83;;
31182;SDS011;17813;0.000;0.000;2022-08-01T05:57:26;2.30;;;1.98;;
31182;SDS011;17813;0.000;0.000;2022-08-01T05:59:52;1.80;;;1.70;;
31182;SDS011;17813;0.000;0.000;2022-08-01T06:02:19;2.00;;;1.77;;
31182;SDS011;17813;0.000;0.000;2022-08-01T06:04:47;3.85;;;1.70;;
31182;SDS011;17813;0.000;0.000;2022-08-01T06:07:14;1.83;;;1.73;;
31182;SDS011;17813;0.000;0.000;2022-08-01T06:09:40;1.80;;;1.70;;
31182;SDS011;17813;0.000;0.000;2022-08-01T06:12:08;1.80;;;1.70;;
31182;SDS011;17813;0.000;0.000;2022-08-01T06:14:36;1.73;;;1.45;;
31182;SDS011;17813;0.000;0.000;2022-08-01T06:17:06;1.70;;;1.60;;
31182;SDS011;17813;0.000;0.000;2022-08-01T06:19:37;1.70;;;1.60;;
31182;SDS011;17813;0.000;0.000;2022-08-01T06:22:08;3.40;;;1.65;;
31182;SDS011;17813;0.000;0.000;2022-08-01T06:24:35;1.85;;;1.60;;
31182;SDS011;17813;0.000;0.000;2022-08-01T06:27:02;2.00;;;1.60;;
31182;SDS011;17813;0.000;0.000;2022-08-01T06:29:33;1.70;;;1.60;;
31182;SDS011;17813;0.000;0.000;2022-08-01T06:32:00;1.90;;;1.60;;
31182;SDS011;17813;0.000;0.000;2022-08-01T06:34:28;2.47;;;1.67;;
31182;SDS011;17813;0.000;0.000;2022-08-01T06:36:55;1.60;;;1.50;;
31182;SDS011;17813;0.000;0.000;2022-08-01T06:39:22;1.75;;;1.65;;
31182;SDS011;17813;0.000;0.000;2022-08-01T06:41:49;2.35;;;1.50;;
31182;SDS011;17813;0.000;0.000;2022-08-01T06:44:16;1.80;;;1.70;;
31182;SDS011;17813;0.000;0.000;2022-08-01T06:46:44;1.90;;;1.80;;
31182;SDS011;17813;0.000;0.000;2022-08-01T06:49:11;1.50;;;1.40;;
31182;SDS011;17813;0.000;0.000;2022-08-01T06:51:38;1.60;;;1.50;;
31182;SDS011;17813;0.000;0.000;2022-08-01T06:54:06;1.95;;;1.77;;
31182;SDS011;17813;0.000;0.000;2022-08-01T06:56:32;1.60;;;1.50;;
31182;SDS011;17813;0.000;0.000;2022-08-01T06:59:01;2.85;;;1.90;;
31182;SDS011;17813;0.000;0.000;2022-08-01T07:01:28;6.13;;;1.98;;
31182;SDS011;17813;0.000;0.000;2022-08-01T07:03:55;1.70;;;1.60;;
31182;SDS011;17813;0.000;0.000;2022-08-01T07:06:22;1.73;;;1.63;;
31182;SDS011;17813;0.000;0.000;2022-08-01T07:08:57;2.78;;;1.73;;
31182;SDS011;17813;0.000;0.000;2022-08-01T07:11:24;1.70;;;1.60;;
31182;SDS011;17813;0.000;0.000;2022-08-01T07:13:54;1.70;;;1.60;;
31182;SDS011;17813;0.000;0.000;2022-08-01T07:16:48;1.63;;;1.52;;
31182;SDS011;17813;0.000;0.000;2022-08-01T07:19:15;1.88;;;1.77;;
31182;SDS011;17813;0.000;0.000;2022-08-01T07:21:42;1.88;;;1.73;;
31182;SDS011;17813;0.000;0.000;2022-08-01T07:24:11;1.75;;;1.60;;
31182;SDS011;17813;0.000;0.000;2022-08-01T07:26:40;1.50;;;1.40;;
31182;SDS011;17813;0.000;0.000;2022-08-01T07:29:09;1.63;;;1.52;;
31182;SDS011;17813;0.000;0.000;2022-08-01T07:31:37;1.75;;;1.60;;
31182;SDS011;17813;0.000;0.000;2022-08-01T07:34:07;2.17;;;1.50;;
31182;SDS011;17813;0.000;0.000;2022-08-01T07:36:34;1.75;;;1.65;;
31182;SDS011;17813;0.000;0.000;2022-08-01T07:39:01;3.13;;;1.75;;
31182;SDS011;17813;0.000;0.000;2022-08-01T07:41:29;1.67;;;1.58;;
31182;SDS011;17813;0.000;0.000;2022-08-01T07:43:56;1.60;;;1.50;;
31182;SDS011;17813;0.000;0.000;2022-08-01T07:46:24;2.25;;;1.70;;
31182;SDS011;17813;0.000;0.000;2022-08-01T07:48:51;1.60;;;1.50;;
31182;SDS011;17813;0.000;0.000;2022-08-01T07:51:18;1.73;;;1.55;;
31182;SDS011;17813;0.000;0.000;2022-08-01T07:53:45;1.80;;;1.70;;
31182;SDS011;17813;0.000;0.000;2022-08-01T07:56:12;1.80;;;1.48;;
31182;SDS011;17813;0.000;0.000;2022-08-01T07:58:39;2.25;;;1.42;;
31182;SDS011;17813;0.000;0.000;2022-08-01T08:01:06;1.45;;;1.23;;
31182;SDS011;17813;0.000;0.000;2022-08-01T08:03:34;0.95;;;0.95;;
31182;SDS011;17813;0.000;0.000;2022-08-01T08:06:03;2.35;;;1.15;;
31182;SDS011;17813;0.000;0.000;2022-08-01T08:08:30;1.30;;;1.15;;
31182;SDS011;17813;0.000;0.000;2022-08-01T08:10:57;0.90;;;0.90;;
31182;SDS011;17813;0.000;0.000;2022-08-01T08:13:24;1.55;;;1.00;;
31182;SDS011;17813;0.000;0.000;2022-08-01T08:15:54;1.10;;;1.00;;
31182;SDS011;17813;0.000;0.000;2022-08-01T08:18:21;1.02;;;1.00;;
31182;SDS011;17813;0.000;0.000;2022-08-01T08:20:53;1.40;;;1.00;;
31182;SDS011;17813;0.000;0.000;2022-08-01T08:23:20;1.73;;;0.90;;
31182;SDS011;17813;0.000;0.000;2022-08-01T08:26:06;0.80;;;0.80;;
31182;SDS011;17813;0.000;0.000;2022-08-01T08:28:33;0.93;;;0.93;;
31182;SDS011;17813;0.000;0.000;2022-08-01T08:30:59;0.85;;;0.85;;
31182;SDS011;17813;0.000;0.000;2022-08-01T08:33:27;1.05;;;1.00;;
31182;SDS011;17813;0.000;0.000;2022-08-01T08:35:54;0.82;;;0.82;;
31182;SDS011;17813;0.000;0.000;2022-08-01T08:38:20;1.90;;;1.00;;
31182;SDS011;17813;0.000;0.000;2022-08-01T08:40:47;1.95;;;1.23;;
31182;SDS011;17813;0.000;0.000;2022-08-01T08:43:14;1.10;;;1.10;;
31182;SDS011;17813;0.000;0.000;2022-08-01T08:45:42;1.42;;;0.88;;
31182;SDS011;17813;0.000;0.000;2022-08-01T08:48:11;1.27;;;1.00;;
31182;SDS011;17813;0.000;0.000;2022-08-01T08:50:40;1.70;;;1.17;;
31182;SDS011;17813;0.000;0.000;2022-08-01T08:53:09;1.13;;;0.80;;
31182;SDS011;17813;0.000;0.000;2022-08-01T08:55:40;0.63;;;0.60;;
31182;SDS011;17813;0.000;0.000;2022-08-01T08:58:12;1.25;;;0.77;;
31182;SDS011;17813;0.000;0.000;2022-08-01T09:00:40;1.25;;;0.90;;
31182;SDS011;17813;0.000;0.000;2022-08-01T09:03:07;0.90;;;0.77;;
31182;SDS011;17813;0.000;0.000;2022-08-01T09:05:35;0.82;;;0.80;;
31182;SDS011;17813;0.000;0.000;2022-08-01T09:08:06;2.97;;;1.05;;
31182;SDS011;17813;0.000;0.000;2022-08-01T09:10:34;1.10;;;1.00;;
31182;SDS011;17813;0.000;0.000;2022-08-01T09:13:02;2.72;;;0.75;;
31182;SDS011;17813;0.000;0.000;2022-08-01T09:18:35;0.85;;;0.73;;
31182;SDS011;17813;0.000;0.000;2022-08-01T09:21:15;1.90;;;0.90;;
31182;SDS011;17813;0.000;0.000;2022-08-01T09:23:45;0.63;;;0.63;;
31182;SDS011;17813;0.000;0.000;2022-08-01T09:26:16;0.60;;;0.60;;
31182;SDS011;17813;0.000;0.000;2022-08-01T09:28:47;0.75;;;0.75;;
31182;SDS011;17813;0.000;0.000;2022-08-01T09:31:16;0.80;;;0.77;;
31182;SDS011;17813;0.000;0.000;2022-08-01T09:36:15;1.70;;;0.85;;
31182;SDS011;17813;0.000;0.000;2022-08-01T09:38:42;0.65;;;0.65;;
31182;SDS011;17813;0.000;0.000;2022-08-01T09:41:09;1.02;;;0.73;;
31182;SDS011;17813;0.000;0.000;2022-08-01T09:43:37;0.60;;;0.60;;
31182;SDS011;17813;0.000;0.000;2022-08-01T09:46:09;0.88;;;0.82;;
31182;SDS011;17813;0.000;0.000;2022-08-01T09:48:37;1.38;;;0.75;;
31182;SDS011;17813;0.000;0.000;2022-08-01T09:51:07;0.70;;;0.60;;
31182;SDS011;17813;0.000;0.000;2022-08-01T09:53:45;0.68;;;0.68;;
31182;SDS011;17813;0.000;0.000;2022-08-01T09:56:14;1.95;;;0.70;;
31182;SDS011;17813;0.000;0.000;2022-08-01T09:58:49;0.70;;;0.70;;
31182;SDS011;17813;0.000;0.000;2022-08-01T10:01:22;0.73;;;0.73;;
31182;SDS011;17813;0.000;0.000;2022-08-01T10:04:09;1.33;;;0.70;;
31182;SDS011;17813;0.000;0.000;2022-08-01T10:06:40;0.70;;;0.70;;
31182;SDS011;17813;0.000;0.000;2022-08-01T10:09:11;2.63;;;0.80;;
31182;SDS011;17813;0.000;0.000;2022-08-01T10:11:40;4.68;;;1.00;;
31182;SDS011;17813;0.000;0.000;2022-08-01T10:14:09;2.42;;;0.60;;
31182;SDS011;17813;0.000;0.000;2022-08-01T10:16:39;0.75;;;0.75;;
31182;SDS011;17813;0.000;0.000;2022-08-01T10:19:07;0.60;;;0.60;;
31182;SDS011;17813;0.000;0.000;2022-08-01T10:21:34;0.65;;;0.65;;
31182;SDS011;17813;0.000;0.000;2022-08-01T10:24:04;1.33;;;0.60;;
31182;SDS011;17813;0.000;0.000;2022-08-01T10:26:34;0.50;;;0.50;;
31182;SDS011;17813;0.000;0.000;2022-08-01T10:29:02;0.73;;;0.73;;
31182;SDS011;17813;0.000;0.000;2022-08-01T10:31:31;0.55;;;0.55;;
31182;SDS011;17813;0.000;0.000;2022-08-01T10:33:59;0.47;;;0.47;;
31182;SDS011;17813;0.000;0.000;2022-08-01T10:36:26;0.65;;;0.65;;
31182;SDS011;17813;0.000;0.000;2022-08-01T10:38:55;2.75;;;0.52;;
31182;SDS011;17813;0.000;0.000;2022-08-01T10:41:24;0.65;;;0.45;;
31182;SDS011;17813;0.000;0.000;2022-08-01T10:43:51;2.75;;;0.60;;
31182;SDS011;17813;0.000;0.000;2022-08-01T10:46:19;0.55;;;0.55;;
31182;SDS011;17813;0.000;0.000;2022-08-01T10:48:56;0.60;;;0.60;;
31182;SDS011;17813;0.000;0.000;2022-08-01T10:51:27;2.67;;;0.70;;
31182;SDS011;17813;0.000;0.000;2022-08-01T10:53:54;0.68;;;0.65;;
31182;SDS011;17813;0.000;0.000;2022-08-01T10:56:23;0.50;;;0.50;;
31182;SDS011;17813;0.000;0.000;2022-08-01T10:59:06;0.55;;;0.55;;
31182;SDS011;17813;0.000;0.000;2022-08-01T11:01:33;0.85;;;0.52;;
31182;SDS011;17813;0.000;0.000;2022-08-01T11:06:41;0.40;;;0.40;;
31182;SDS011;17813;0.000;0.000;2022-08-01T11:12:14;2.83;;;0.40;;
31182;SDS011;17813;0.000;0.000;2022-08-01T11:17:37;0.50;;;0.50;;
31182;SDS011;17813;0.000;0.000;2022-08-01T11:20:17;0.30;;;0.30;;
31182;SDS011;17813;0.000;0.000;2022-08-01T11:38:38;1.58;;;0.35;;
31182;SDS011;17813;0.000;0.000;2022-08-01T11:50:33;1.95;;;0.22;;
31182;SDS011;17813;0.000;0.000;2022-08-01T11:53:05;0.40;;;0.40;;
31182;SDS011;17813;0.000;0.000;2022-08-01T11:55:33;1.05;;;0.40;;
31182;SDS011;17813;0.000;0.000;2022-08-01T11:58:02;0.45;;;0.30;;
31182;SDS011;17813;0.000;0.000;2022-08-01T12:00:31;0.30;;;0.30;;
31182;SDS011;17813;0.000;0.000;2022-08-01T12:03:04;0.50;;;0.50;;
31182;SDS011;17813;0.000;0.000;2022-08-01T12:05:34;1.48;;;0.30;;
31182;SDS011;17813;0.000;0.000;2022-08-01T12:08:02;1.00;;;0.30;;
31182;SDS011;17813;0.000;0.000;2022-08-01T12:10:49;1.27;;;0.30;;
31182;SDS011;17813;0.000;0.000;2022-08-01T12:13:16;0.50;;;0.50;;
31182;SDS011;17813;0.000;0.000;2022-08-01T12:15:46;2.47;;;0.50;;
31182;SDS011;17813;0.000;0.000;2022-08-01T12:18:19;0.52;;;0.43;;
31182;SDS011;17813;0.000;0.000;2022-08-01T12:20:46;0.65;;;0.45;;
31182;SDS011;17813;0.000;0.000;2022-08-01T12:23:14;0.63;;;0.50;;
31182;SDS011;17813;0.000;0.000;2022-08-01T12:25:42;0.22;;;0.22;;
31182;SDS011;17813;0.000;0.000;2022-08-01T12:28:10;0.50;;;0.30;;
31182;SDS011;17813;0.000;0.000;2022-08-01T12:30:40;1.20;;;0.30;;
31182;SDS011;17813;0.000;0.000;2022-08-01T12:33:09;0.40;;;0.40;;
31182;SDS011;17813;0.000;0.000;2022-08-01T12:35:42;0.47;;;0.45;;
31182;SDS011;17813;0.000;0.000;2022-08-01T12:38:19;1.33;;;0.20;;
31182;SDS011;17813;0.000;0.000;2022-08-01T12:40:56;0.30;;;0.30;;
31182;SDS011;17813;0.000;0.000;2022-08-01T12:43:24;1.27;;;0.30;;
31182;SDS011;17813;0.000;0.000;2022-08-01T12:45:51;0.22;;;0.22;;
31182;SDS011;17813;0.000;0.000;2022-08-01T12:48:19;2.70;;;0.40;;
31182;SDS011;17813;0.000;0.000;2022-08-01T12:50:47;0.75;;;0.40;;
31182;SDS011;17813;0.000;0.000;2022-08-01T12:53:16;0.20;;;0.20;;
31182;SDS011;17813;0.000;0.000;2022-08-01T12:55:50;0.75;;;0.20;;
31182;SDS011;17813;0.000;0.000;2022-08-01T12:58:21;3.70;;;0.30;;
31182;SDS011;17813;0.000;0.000;2022-08-01T13:00:48;0.15;;;0.15;;
31182;SDS011;17813;0.000;0.000;2022-08-01T13:03:28;0.45;;;0.30;;
31182;SDS011;17813;0.000;0.000;2022-08-01T13:05:57;0.80;;;0.30;;
31182;SDS011;17813;0.000;0.000;2022-08-01T13:08:31;0.20;;;0.20;;
31182;SDS011;17813;0.000;0.000;2022-08-01T13:11:04;0.22;;;0.22;;
31182;SDS011;17813;0.000;0.000;2022-08-01T13:13:39;0.20;;;0.20;;
31182;SDS011;17813;0.000;0.000;2022-08-01T13:16:17;0.32;;;0.22;;
31182;SDS011;17813;0.000;0.000;2022-08-01T13:18:50;0.47;;;0.22;;
31182;SDS011;17813;0.000;0.000;2022-08-01T13:21:19;0.25;;;0.10;;
31182;SDS011;17813;0.000;0.000;2022-08-01T13:26:50;1.55;;;0.40;;
31182;SDS011;17813;0.000;0.000;2022-08-01T13:29:20;0.52;;;0.20;;
31182;SDS011;17813;0.000;0.000;2022-08-01T13:31:54;0.90;;;0.35;;
31182;SDS011;17813;0.000;0.000;2022-08-01T13:34:34;0.20;;;0.20;;
31182;SDS011;17813;0.000;0.000;2022-08-01T13:37:01;2.33;;;0.30;;
31182;SDS011;17813;0.000;0.000;2022-08-01T13:39:28;1.25;;;0.30;;
31182;SDS011;17813;0.000;0.000;2022-08-01T13:42:15;0.55;;;0.38;;
31182;SDS011;17813;0.000;0.000;2022-08-01T13:44:43;0.55;;;0.30;;
31182;SDS011;17813;0.000;0.000;2022-08-01T13:47:12;0.30;;;0.30;;
31182;SDS011;17813;0.000;0.000;2022-08-01T13:49:41;1.20;;;0.20;;
31182;SDS011;17813;0.000;0.000;2022-08-01T13:52:08;1.08;;;0.40;;
31182;SDS011;17813;0.000;0.000;2022-08-01T13:54:35;0.22;;;0.20;;
31182;SDS011;17813;0.000;0.000;2022-08-01T13:57:03;0.25;;;0.10;;
31182;SDS011;17813;0.000;0.000;2022-08-01T13:59:30;0.25;;;0.25;;
31182;SDS011;17813;0.000;0.000;2022-08-01T14:01:56;0.15;;;0.15;;
31182;SDS011;17813;0.000;0.000;2022-08-01T14:04:24;1.00;;;0.17;;
31182;SDS011;17813;0.000;0.000;2022-08-01T14:06:51;0.30;;;0.30;;
31182;SDS011;17813;0.000;0.000;2022-08-01T14:09:18;0.10;;;0.10;;
31182;SDS011;17813;0.000;0.000;2022-08-01T14:11:48;0.10;;;0.10;;
31182;SDS011;17813;0.000;0.000;2022-08-01T14:14:15;0.13;;;0.10;;
31182;SDS011;17813;0.000;0.000;2022-08-01T14:16:42;0.20;;;0.20;;
31182;SDS011;17813;0.000;0.000;2022-08-01T14:19:10;0.38;;;0.22;;
31182;SDS011;17813;0.000;0.000;2022-08-01T14:21:37;0.30;;;0.30;;
31182;SDS011;17813;0.000;0.000;2022-08-01T14:24:04;0.30;;;0.30;;
31182;SDS011;17813;0.000;0.000;2022-08-01T14:26:32;1.67;;;0.40;;
31182;SDS011;17813;0.000;0.000;2022-08-01T14:28:59;0.30;;;0.30;;
31182;SDS011;17813;0.000;0.000;2022-08-01T14:31:26;0.32;;;0.20;;
31182;SDS011;17813;0.000;0.000;2022-08-01T14:33:54;0.50;;;0.30;;
31182;SDS011;17813;0.000;0.000;2022-08-01T14:36:22;0.30;;;0.30;;
31182;SDS011;17813;0.000;0.000;2022-08-01T14:38:49;0.32;;;0.30;;
31182;SDS011;17813;0.000;0.000;2022-08-01T14:41:16;0.20;;;0.20;;
31182;SDS011;17813;0.000;0.000;2022-08-01T14:43:43;0.38;;;0.30;;
31182;SDS011;17813;0.000;0.000;2022-08-01T14:46:11;2.72;;;0.40;;
31182;SDS011;17813;0.000;0.000;2022-08-01T14:48:38;0.45;;;0.40;;
31182;SDS011;17813;0.000;0.000;2022-08-01T14:51:05;4.90;;;0.38;;
31182;SDS011;17813;0.000;0.000;2022-08-01T14:53:41;1.40;;;0.30;;
31182;SDS011;17813;0.000;0.000;2022-08-01T14:56:08;0.22;;;0.22;;
31182;SDS011;17813;0.000;0.000;2022-08-01T14:58:35;0.60;;;0.20;;
31182;SDS011;17813;0.000;0.000;2022-08-01T15:01:02;0.32;;;0.10;;
31182;SDS011;17813;0.000;0.000;2022-08-01T15:03:31;0.13;;;0.13;;
31182;SDS011;17813;0.000;0.000;2022-08-01T15:05:58;2.75;;;0.25;;
31182;SDS011;17813;0.000;0.000;2022-08-01T15:08:25;0.35;;;0.20;;
31182;SDS011;17813;0.000;0.000;2022-08-01T15:10:52;0.20;;;0.20;;
31182;SDS011;17813;0.000;0.000;2022-08-01T15:13:19;0.50;;;0.35;;
31182;SDS011;17813;0.000;0.000;2022-08-01T15:15:46;0.80;;;0.20;;
31182;SDS011;17813;0.000;0.000;2022-08-01T15:18:13;3.50;;;0.60;;
31182;SDS011;17813;0.000;0.000;2022-08-01T15:20:40;0.65;;;0.30;;
31182;SDS011;17813;0.000;0.000;2022-08-01T15:23:07;1.02;;;0.40;;
31182;SDS011;17813;0.000;0.000;2022-08-01T15:25:35;0.30;;;0.30;;
31182;SDS011;17813;0.000;0.000;2022-08-01T15:28:03;0.80;;;0.50;;
31182;SDS011;17813;0.000;0.000;2022-08-01T15:30:30;0.47;;;0.30;;
31182;SDS011;17813;0.000;0.000;2022-08-01T15:32:58;2.28;;;0.60;;
31182;SDS011;17813;0.000;0.000;2022-08-01T15:35:25;0.50;;;0.50;;
31182;SDS011;17813;0.000;0.000;2022-08-01T15:37:52;0.50;;;0.50;;
31182;SDS011;17813;0.000;0.000;2022-08-01T15:40:19;0.63;;;0.60;;
31182;SDS011;17813;0.000;0.000;2022-08-01T15:42:46;0.82;;;0.50;;
31182;SDS011;17813;0.000;0.000;2022-08-01T15:45:13;0.50;;;0.50;;
31182;SDS011;17813;0.000;0.000;2022-08-01T15:47:44;2.05;;;0.50;;
31182;SDS011;17813;0.000;0.000;2022-08-01T15:50:10;0.70;;;0.70;;
31182;SDS011;17813;0.000;0.000;2022-08-01T15:52:37;0.70;;;0.70;;
31182;SDS011;17813;0.000;0.000;2022-08-01T15:55:04;0.80;;;0.80;;
31182;SDS011;17813;0.000;0.000;2022-08-01T15:57:32;0.95;;;0.75;;
31182;SDS011;17813;0.000;0.000;2022-08-01T15:59:59;0.90;;;0.73;;
31182;SDS011;17813;0.000;0.000;2022-08-01T16:02:26;0.50;;;0.50;;
31182;SDS011;17813;0.000;0.000;2022-08-01T16:04:54;0.98;;;0.90;;